LPA weather

Gran Canaria Airport
Gran Canaria Island, Canary Islands, Spain

Public forecast

Using degrees Celsius for public forecast. Weather courtesy of forecast.io.

Current aviation weather report (METAR) for Gran Canaria Airport

Retrieved 2019/10/19 01:30 UTC (0 seconds ago):

GCLP 190130Z 35010KT 320V020 9999 FEW028 SCT030 22/16 Q1017 NOSIG

Aviation forecast (TAF) for Gran Canaria Airport

Retrieved 2019-10-19 03:27 UTC (0 seconds ago):

TAF GCLP 190200Z 1903/2003 35014KT 9999 FEW030 TX26/1914Z TN21/1903Z